Airfield :
LOGIN :

Register | Disclaimer

   EN    FR    IT 

 










Legend :    VFR   Marginal VFR   IFR   Intensive IFR   Very Intensive IFR
Visi :
Ceiling :
>= 8 km
>= 3000ft
5 to 8 km
1000 to 3000 ft
1500m to 5 km
500 to 1000 ft
800 to 1500m
200 to 500 ft
< 800m
< 200 ft
Symbols :   Thunderstorms  Fog  Heavy snow  Heavy precipitations  Wind > 20 kt
SIGMETs :     Misc.  Thunderstorms  Icing  Turbulence  Mountain Waves  Volcanic Ashes







- Airport Elevation : 3 ft
- IATA code : LWR


EHLW - Leuuwarden Air Base

CURRENT METAR :
  • 191025Z AUTO 25015KT 210V270 9999 FEW009 BKN010 BKN013 08/06 Q1015 GRN

EXPIRED METARs :
  • 190955Z AUTO 24014KT 210V270 9999 FEW008 BKN010 BKN013 07/06 Q1015 REDZ GRN
  • 190941Z AUTO 24014KT 9999 -DZ FEW008 SCT010 BKN012 07/06 Q1015 GRN
  • 190940Z AUTO 24013KT 9999 DZRA FEW008 SCT010 BKN016 07/06 Q1015 GRN
  • 190925Z AUTO 23013KT 7000 -DZ FEW008 SCT018 BKN027 07/06 Q1014 WHT
  • 190915Z AUTO 24012KT 200V260 5000 -RA FEW008 SCT016 BKN031 07/06 Q1014 WHT
  • 190855Z AUTO 24014KT 210V270 9999 FEW039 BKN046 BKN051 07/06 Q1014 BLU
  • 190825Z AUTO 23012KT 9999 BKN048 06/05 Q1014 BLU
  • 190755Z AUTO 23010KT 9999 OVC047 06/05 Q1014 BLU

TAF TAF EHLW
Valid from the 19 at 10:00 until the 19 at 22:00 UTC


190940Z 1910/1922 25014G24KT 9999 SCT012 BKN040
TEMPO 1910/1916 SCT008 BKN012
BECMG 1916/1918 23010KT SCT040
No reported NOTAMs for that airfield.



MET'MAP, your aeronautical weather chart ! - Copyright ORBIFLY December 2007 - Disclaimer

ORBIFLY MET'MAP TEAM :

Programming & Development : Alexandra Zaïnal
Concept & Development : Baudouin d'Aumeries
Co-Development & Prog : Marc-Olivier Méhu
Technical & hardware support : Manuel Goepfert

Contact : metmap@orbifly.com




SOURCES & CREDITS :

   NOAA